createdAt,value
2019-05-26T00:23:08.441Z,99.90
2019-05-26T00:34:13.557Z,99.90
2019-05-26T00:40:08.647Z,99.90
2019-05-26T00:46:02.595Z,99.90
2019-05-26T00:51:37.732Z,99.90
2019-05-26T00:57:40.772Z,99.90
2019-05-26T01:03:42.532Z,99.90
2019-05-26T01:15:13.638Z,99.90
2019-05-26T01:20:48.279Z,99.90
2019-05-26T01:26:38.047Z,99.90
2019-05-26T01:32:08.526Z,99.90
2019-05-26T01:39:30.536Z,99.90
2019-05-26T01:50:26.905Z,99.90
2019-05-26T02:07:50.609Z,99.90
2019-05-26T02:13:21.306Z,99.90
2019-05-26T02:24:03.969Z,99.90
2019-05-26T02:36:21.792Z,99.90
2019-05-26T02:42:02.775Z,99.90
2019-05-26T02:47:35.667Z,99.90
2019-05-26T02:53:17.074Z,99.90
2019-05-26T02:58:59.539Z,99.90
2019-05-26T03:10:49.419Z,99.90
2019-05-26T03:16:33.191Z,99.90
2019-05-26T03:22:25.147Z,99.90
2019-05-26T03:28:11.887Z,99.90
2019-05-26T03:33:48.568Z,99.90
2019-05-26T03:39:07.697Z,99.90
2019-05-26T03:44:47.474Z,99.90
2019-05-26T03:50:17.370Z,99.90
2019-05-26T04:02:13.040Z,99.90
2019-05-26T04:14:43.425Z,99.90
2019-05-26T04:20:01.643Z,99.90
2019-05-26T04:25:37.126Z,99.90
2019-05-26T04:31:28.803Z,99.90
2019-05-26T04:37:10.464Z,99.90
2019-05-26T04:42:28.982Z,99.90
2019-05-26T04:48:34.645Z,99.90
2019-05-26T04:54:41.740Z,99.90
2019-05-26T05:00:00.436Z,99.90
2019-05-26T05:05:26.923Z,99.90
2019-05-26T05:11:11.363Z,99.90
2019-05-26T05:16:41.967Z,99.90
2019-05-26T05:22:25.575Z,99.90
2019-05-26T05:28:09.472Z,99.90
2019-05-26T05:39:49.165Z,99.90
2019-05-26T05:45:33.694Z,99.90
2019-05-26T05:51:21.241Z,99.90
2019-05-26T05:57:07.080Z,99.90
2019-05-26T06:03:11.622Z,99.90
2019-05-26T06:08:20.726Z,99.90
2019-05-26T06:13:52.303Z,92.90
2019-05-26T06:19:25.874Z,82.20
2019-05-26T06:25:02.521Z,75.40
2019-05-26T06:31:04.131Z,71.70
2019-05-26T06:36:41.206Z,69.00
2019-05-26T06:42:26.779Z,67.80
2019-05-26T06:47:58.923Z,69.10
2019-05-26T06:54:03.032Z,70.20
2019-05-26T07:06:26.024Z,65.20
2019-05-26T07:18:03.781Z,62.80
2019-05-26T07:23:37.979Z,60.90
2019-05-26T07:29:29.522Z,60.50
2019-05-26T07:34:52.033Z,59.70
2019-05-26T07:40:24.387Z,58.60
2019-05-26T07:46:00.325Z,57.00
2019-05-26T07:51:29.569Z,58.70
2019-05-26T07:57:26.648Z,58.30
2019-05-26T08:09:19.359Z,58.30
2019-05-26T08:21:19.447Z,57.50
2019-05-26T08:26:39.789Z,57.00
2019-05-26T08:37:35.983Z,59.70
2019-05-26T08:43:00.437Z,57.00
2019-05-26T08:48:51.413Z,57.80
2019-05-26T08:54:32.516Z,57.00
2019-05-26T09:06:02.890Z,63.50
2019-05-26T09:11:37.510Z,60.10
2019-05-26T09:17:27.039Z,59.40
2019-05-26T09:23:00.089Z,58.50
2019-05-26T09:28:34.487Z,60.00
2019-05-26T09:34:04.467Z,60.80
2019-05-26T09:39:34.256Z,59.20
2019-05-26T09:45:16.671Z,58.50
2019-05-26T09:57:33.199Z,56.40
2019-05-26T10:03:14.780Z,56.60
2019-05-26T10:09:02.424Z,55.40
2019-05-26T10:20:58.811Z,60.50
2019-05-26T10:38:27.754Z,65.60
2019-05-26T10:43:58.465Z,64.40
2019-05-26T10:49:40.484Z,62.20
2019-05-26T11:01:54.124Z,68.40
2019-05-26T11:08:26.060Z,65.70
2019-05-26T11:14:02.351Z,64.20
2019-05-26T11:18:55.738Z,61.50
2019-05-26T11:24:00.292Z,62.60
2019-05-26T11:29:05.409Z,63.90
2019-05-26T11:34:10.427Z,58.20
2019-05-26T11:39:15.218Z,68.60
2019-05-26T11:44:20.030Z,66.90
2019-05-26T11:49:26.001Z,70.90
2019-05-26T11:54:34.277Z,67.90
2019-05-26T11:59:37.367Z,65.70
2019-05-26T12:04:42.086Z,68.20
2019-05-26T12:09:47.342Z,73.70
2019-05-26T12:14:51.855Z,71.20
2019-05-26T12:19:56.804Z,66.80
2019-05-26T12:25:01.171Z,69.70
2019-05-26T12:30:07.593Z,68.80
2019-05-26T12:35:13.570Z,67.20
2019-05-26T12:40:18.596Z,70.20
2019-05-26T12:45:23.284Z,69.50
2019-05-26T12:50:27.797Z,71.70
2019-05-26T12:55:32.622Z,68.70
2019-05-26T13:00:48.243Z,63.90
2019-05-26T13:05:44.332Z,66.20
2019-05-26T13:10:49.167Z,69.80
2019-05-26T13:15:54.422Z,69.20
2019-05-26T13:20:59.327Z,61.30
2019-05-26T13:26:04.049Z,63.60
2019-05-26T13:31:08.432Z,70.50
2019-05-26T13:36:13.408Z,65.00
2019-05-26T13:41:18.046Z,70.40
2019-05-26T13:46:22.926Z,65.50
2019-05-26T13:51:29.976Z,66.00
2019-05-26T13:56:34.747Z,68.10
2019-05-26T14:01:39.552Z,68.90
2019-05-26T14:06:44.214Z,67.30
2019-05-26T14:11:48.569Z,70.30
2019-05-26T14:16:55.178Z,67.50
2019-05-26T14:22:00.145Z,69.20
2019-05-26T14:27:04.896Z,67.60
2019-05-26T14:32:10.771Z,75.70
2019-05-26T14:37:15.787Z,75.50
2019-05-26T14:42:20.497Z,70.20
2019-05-26T14:47:25.565Z,73.40
2019-05-26T14:52:30.253Z,69.30
2019-05-26T14:57:34.744Z,72.70
2019-05-26T15:02:39.546Z,70.40
2019-05-26T15:07:44.610Z,73.60
2019-05-26T15:12:49.210Z,75.50
2019-05-26T15:17:56.231Z,74.30
2019-05-26T15:23:01.094Z,72.60
2019-05-26T15:28:05.688Z,71.00
2019-05-26T15:33:10.240Z,71.20
2019-05-26T15:38:14.972Z,70.50
2019-05-26T15:43:19.473Z,73.90
2019-05-26T15:48:24.179Z,76.10
2019-05-26T15:53:28.751Z,76.10
2019-05-26T15:58:33.424Z,78.80
2019-05-26T16:03:38.499Z,81.50
2019-05-26T16:08:45.918Z,78.00
2019-05-26T16:13:50.972Z,75.70
2019-05-26T16:18:55.788Z,73.90
2019-05-26T16:24:00.402Z,78.00
2019-05-26T16:29:05.368Z,80.30
2019-05-26T16:34:10.185Z,82.40
2019-05-26T16:39:16.161Z,82.60
2019-05-26T16:44:20.906Z,85.00
2019-05-26T16:49:26.664Z,87.10
2019-05-26T16:54:31.486Z,85.10
2019-05-26T16:59:36.494Z,82.30
2019-05-26T17:04:41.638Z,85.20
2019-05-26T17:09:46.438Z,84.60
2019-05-26T17:14:51.306Z,85.70
2019-05-26T17:19:57.586Z,84.70
2019-05-26T17:25:02.426Z,88.10
2019-05-26T17:30:07.873Z,86.20
2019-05-26T17:35:13.496Z,87.00
2019-05-26T17:40:19.952Z,87.80
2019-05-26T17:45:25.343Z,88.60
2019-05-26T17:50:30.558Z,89.70
2019-05-26T17:55:35.176Z,88.50
2019-05-26T18:00:41.203Z,85.00
2019-05-26T18:05:45.754Z,89.10
2019-05-26T18:10:50.642Z,91.60
2019-05-26T18:15:55.582Z,93.10
2019-05-26T18:21:00.457Z,93.70
2019-05-26T18:26:05.712Z,91.10
2019-05-26T18:31:11.141Z,92.80
2019-05-26T18:36:15.658Z,93.30
2019-05-26T18:41:20.282Z,92.90
2019-05-26T18:46:25.201Z,93.70
2019-05-26T18:51:31.244Z,94.60
2019-05-26T18:56:36.571Z,96.80
2019-05-26T19:01:41.590Z,96.40
2019-05-26T19:06:46.186Z,96.00
2019-05-26T19:11:50.792Z,96.30
2019-05-26T19:16:55.890Z,96.20
2019-05-26T19:22:01.410Z,95.00
2019-05-26T19:27:06.467Z,95.60
2019-05-26T19:32:11.437Z,96.10
2019-05-26T19:37:16.392Z,96.00
2019-05-26T19:42:21.046Z,97.30
2019-05-26T19:47:26.108Z,97.50
2019-05-26T19:52:31.999Z,97.00
2019-05-26T19:57:36.484Z,98.60
2019-05-26T20:02:41.446Z,99.60
2019-05-26T20:07:46.320Z,99.90
2019-05-26T20:12:50.963Z,99.90
2019-05-26T20:17:55.998Z,99.90
2019-05-26T20:23:01.346Z,99.90
2019-05-26T20:28:06.294Z,99.90
2019-05-26T20:33:12.148Z,99.90
2019-05-26T20:38:19.511Z,99.90
2019-05-26T20:43:25.132Z,99.90
2019-05-26T20:48:30.113Z,99.90
2019-05-26T20:53:34.561Z,99.90
2019-05-26T20:58:39.356Z,99.90
2019-05-26T21:03:43.955Z,99.90
2019-05-26T21:08:49.074Z,99.90
2019-05-26T21:13:53.704Z,99.90
2019-05-26T21:18:58.489Z,99.90
2019-05-26T21:24:03.417Z,99.90
2019-05-26T21:29:08.236Z,99.90
2019-05-26T21:34:13.052Z,99.90
2019-05-26T21:39:18.214Z,99.90
2019-05-26T21:44:22.975Z,99.90
2019-05-26T21:49:27.784Z,99.90
2019-05-26T21:54:32.489Z,99.90
2019-05-26T21:59:37.390Z,99.90
2019-05-26T22:04:41.827Z,99.90
2019-05-26T22:09:46.698Z,99.90
2019-05-26T22:14:51.419Z,99.90
2019-05-26T22:19:56.181Z,99.90
2019-05-26T22:25:00.705Z,99.90
2019-05-26T22:30:06.307Z,99.90
2019-05-26T22:35:11.516Z,99.90
2019-05-26T22:40:16.389Z,99.90
2019-05-26T22:45:21.105Z,99.90
2019-05-26T22:50:26.173Z,99.90
2019-05-26T22:55:32.754Z,99.90
2019-05-26T23:00:37.475Z,99.90
2019-05-26T23:05:42.112Z,99.90
2019-05-26T23:10:46.508Z,99.90
2019-05-26T23:15:51.189Z,99.90
2019-05-26T23:20:56.231Z,99.90
2019-05-26T23:26:01.009Z,99.90
2019-05-26T23:31:05.828Z,99.90
2019-05-26T23:36:10.288Z,99.90
2019-05-26T23:41:15.156Z,99.90
2019-05-26T23:46:19.783Z,99.90
2019-05-26T23:51:24.554Z,99.90
2019-05-26T23:56:29.333Z,99.90
